KLWM

Lawrence Municipal Airport

Lawrence, Massachusetts, USA
METAR KLWM 190454Z AUTO 30014G21KT 10SM CLR M04/M13 A3003 RMK AO2 SLP169 T10441128 400331044
Observed Flight Rules
Dec-19 @ 04:54 UTC (34 minutes ago) Visual Flight Rules
Wind Visibility Clouds
300° at 14 knots
 Gusting to 21 knots
10 miles
  • Clear skies
Temperatures Readings
Current -4°C / 25°F
Dewpoint -13°C / 9°F
Humidity 50%
Altimeter 30.03" Hg
Pressure 1016.9 hPa
Elevation 54
METAR KLWM 190454Z AUTO 30014G21KT 10SM CLR M04/M13 A3003 RMK AO2 SLP169 T10441128 400331044
Observed Flight Rules
Dec-19 @ 04:54 UTC
(34 minutes ago)
VFR
Wind Visibility
300° at 14 knots
 Gusting to 21 knots
10 miles
Clouds
  • Clear skies
Temperature Dewpoint
-4°C / 25°F -13°C / 9°F
Humidity Altimeter Pressure
50% 30.03" Hg 1016.9 hPa